Αρχική σελίδα
METAR-TAF:

METAR-TAF

Αεροδρόμια :

Inuvik, Βορειοδυτικά Εδάφη, Καναδάς

γεωγραφικό πλάτος: 68-18N, γεωγραφικό μήκος: 133-29W, υψόμετρο: 59 μ

Παρών καιρός

Η αναφορά έγινε 42 λεπτά πριν, στις 12:00 UTC
Άνεμος 7 kt από Α/BA
Θερμοκρασία -23°C
Υγρασία 76%
Πίεση 1001 hPa
Ορατότητα: 24.1 χλμ
Καθαρός ουρανός

METAR: CYEV 161200Z 06007KT 15SM SKC M23/M26 A2955 RMK PRESFR SLP017

Χρόνος: 05:42 (12:42 UTC)

Πρόγνωση Καιρού

Η αναφορά έγινε 6 ώρες και 4 λεπτά πριν, στις 06:38 UTC
Η πρόγνωση ισχύει από τις 16 στις 07 UTC έως τις 16 στις 19 UTC
Άνεμος 7 kt από Α
Ορατότητα: 10 χλμ
Διάσπαρτα νέφη σε ύψος 20000 πόδια
Από 16 στις 1500 UTC
Άνεμος 10 kt από Α
Ορατότητα: 10 χλμ
Αρκετά νέφη σε ύψος 10000 πόδια
Αρκετά νέφη σε ύψος 20000 πόδια

TAF: CYEV 160638Z 1607/1619 09007KT P6SM SCT200 FM161500 10010KT P6SM BKN100 BKN200 RMK NXT FCST BY 161300Z

Μετεωρολογικές αναφορές και προγνώσεις για περισσότερα από 4000 αεροδρόμια (δελτία METAR και TAF).

Οι διαθέσιμοι σταθμοί απεικονίζονται στο χάρτη με κίτρινες και κόκκινες κουκκίδες.

Μετακινήστε το ποντίκι πάνω από τις κουκκίδες για να δείτε το όνομα του σταθμού.

Στη συνέχεια, κάντε κλικ για να δείτε τις μετεωρολογικές αναφορές και τις προγνώσεις καιρού.

Για να αλλάξετε το χάρτη: κάντε κλικ στα πράσινα κουμπιά με τον μαύρο σταυρό για να ζουμάρετε, στο πράσινο κουμπί με την παύλα για να αφαιρέσετε το ζουμ ή στα πράσινα βέλη για να αντιπαραβάλλετε χάρτες.


METAR-TAF: